createdAt,value
2018-12-25T00:00:07.486Z,1.80
2018-12-25T00:01:07.514Z,1.77
2018-12-25T00:02:07.484Z,1.87
2018-12-25T00:03:07.497Z,1.84
2018-12-25T00:04:07.444Z,1.82
2018-12-25T00:05:07.433Z,1.77
2018-12-25T00:06:07.423Z,1.81
2018-12-25T00:07:07.414Z,1.82
2018-12-25T00:08:07.399Z,1.71
2018-12-25T00:09:07.433Z,1.64
2018-12-25T00:10:07.386Z,1.69
2018-12-25T00:11:07.377Z,1.69
2018-12-25T00:12:07.398Z,1.78
2018-12-25T00:13:07.344Z,1.82
2018-12-25T00:14:07.336Z,1.87
2018-12-25T00:15:07.323Z,1.78
2018-12-25T00:16:07.319Z,1.84
2018-12-25T00:17:07.309Z,2.03
2018-12-25T00:18:07.334Z,2.01
2018-12-25T00:19:07.286Z,1.95
2018-12-25T00:20:07.267Z,1.97
2018-12-25T00:21:07.258Z,1.87
2018-12-25T00:22:07.246Z,1.85
2018-12-25T00:23:07.236Z,1.95
2018-12-25T00:24:07.270Z,1.89
2018-12-25T00:25:07.215Z,1.95
2018-12-25T00:26:07.239Z,2.01
2018-12-25T00:27:07.193Z,1.97
2018-12-25T00:28:07.184Z,1.95
2018-12-25T00:29:07.170Z,1.91
2018-12-25T00:30:07.218Z,1.92
2018-12-25T00:31:07.190Z,2.00
2018-12-25T00:32:07.138Z,1.97
2018-12-25T00:33:07.127Z,1.99
2018-12-25T00:34:07.121Z,1.99
2018-12-25T00:35:07.105Z,1.87
2018-12-25T00:36:07.379Z,1.99
2018-12-25T00:37:07.087Z,2.07
2018-12-25T00:38:07.073Z,2.14
2018-12-25T00:39:07.066Z,2.17
2018-12-25T00:40:07.050Z,2.14
2018-12-25T00:41:07.050Z,2.10
2018-12-25T00:42:07.072Z,1.95
2018-12-25T00:43:07.018Z,1.95
2018-12-25T00:44:07.008Z,2.00
2018-12-25T00:45:07.004Z,2.07
2018-12-25T00:46:07.037Z,2.14
2018-12-25T00:47:06.973Z,2.17
2018-12-25T00:48:06.968Z,2.15
2018-12-25T00:49:14.539Z,2.18
2018-12-25T00:50:07.941Z,2.21
2018-12-25T00:51:06.974Z,2.29
2018-12-25T00:52:06.928Z,2.12
2018-12-25T00:53:06.912Z,2.06
2018-12-25T00:54:06.901Z,2.01
2018-12-25T00:55:06.894Z,1.84
2018-12-25T00:56:06.927Z,1.91
2018-12-25T00:57:06.868Z,1.93
2018-12-25T00:58:06.856Z,2.01
2018-12-25T00:59:06.844Z,1.84
2018-12-25T01:00:06.851Z,1.97
2018-12-25T01:01:06.821Z,1.95
2018-12-25T01:02:06.851Z,2.03
2018-12-25T01:03:06.803Z,2.01
2018-12-25T01:04:06.792Z,2.00
2018-12-25T01:05:06.785Z,1.99
2018-12-25T01:06:06.782Z,2.11
2018-12-25T01:07:06.772Z,2.15
2018-12-25T01:08:06.799Z,2.12
2018-12-25T01:09:06.793Z,2.15
2018-12-25T01:10:06.727Z,2.17
2018-12-25T01:11:06.772Z,2.04
2018-12-25T01:12:06.701Z,2.11
2018-12-25T01:13:06.692Z,2.07
2018-12-25T01:14:06.722Z,2.12
2018-12-25T01:15:06.678Z,2.07
2018-12-25T01:16:06.662Z,2.14
2018-12-25T01:17:06.650Z,2.18
2018-12-25T01:18:06.638Z,1.99
2018-12-25T01:19:07.530Z,1.93
2018-12-25T01:20:06.655Z,1.99
2018-12-25T01:21:06.605Z,1.91
2018-12-25T01:22:06.593Z,1.99
2018-12-25T01:23:06.588Z,1.84
2018-12-25T01:24:06.620Z,2.01
2018-12-25T01:25:06.561Z,1.91
2018-12-25T01:26:06.559Z,1.99
2018-12-25T01:27:06.541Z,1.87
2018-12-25T01:28:06.528Z,1.89
2018-12-25T01:29:06.516Z,2.00
2018-12-25T01:30:06.553Z,2.00
2018-12-25T01:31:06.541Z,1.93
2018-12-25T01:32:06.489Z,1.92
2018-12-25T01:33:06.474Z,2.01
2018-12-25T01:34:06.466Z,1.99
2018-12-25T01:35:06.460Z,2.04
2018-12-25T01:36:06.441Z,2.01
2018-12-25T01:37:06.476Z,2.03
2018-12-25T01:38:06.423Z,1.99
2018-12-25T01:39:06.450Z,2.00
2018-12-25T01:40:06.403Z,2.07
2018-12-25T01:41:06.385Z,2.11
2018-12-25T01:42:06.377Z,2.10
2018-12-25T01:43:06.366Z,2.04
2018-12-25T01:44:06.401Z,2.00
2018-12-25T01:45:06.345Z,2.06
2018-12-25T01:46:06.332Z,2.12
2018-12-25T01:47:06.321Z,2.14
2018-12-25T01:48:06.311Z,2.14
2018-12-25T01:49:06.301Z,2.24
2018-12-25T01:50:06.330Z,2.22
2018-12-25T01:51:06.381Z,2.19
2018-12-25T01:52:06.266Z,2.21
2018-12-25T01:53:06.258Z,2.25
2018-12-25T01:54:06.245Z,2.29
2018-12-25T01:55:06.245Z,2.22
2018-12-25T01:56:06.265Z,2.11
2018-12-25T01:57:06.211Z,2.14
2018-12-25T01:58:06.202Z,2.15
2018-12-25T01:59:06.192Z,2.11
2018-12-25T02:00:06.181Z,2.14
2018-12-25T02:01:06.212Z,2.04
2018-12-25T02:02:06.158Z,2.04
2018-12-25T02:03:06.161Z,2.01
2018-12-25T02:04:06.136Z,2.14
2018-12-25T02:05:06.124Z,2.14
2018-12-25T02:06:06.116Z,2.15
2018-12-25T02:07:06.145Z,2.25
2018-12-25T02:08:06.100Z,2.30
2018-12-25T02:09:06.082Z,2.37
2018-12-25T02:10:06.116Z,2.28
2018-12-25T02:11:06.063Z,2.37
2018-12-25T02:12:06.097Z,2.35
2018-12-25T02:13:06.042Z,2.28
2018-12-25T02:14:06.029Z,2.28
2018-12-25T02:15:06.017Z,2.36
2018-12-25T02:16:06.006Z,2.33
2018-12-25T02:17:05.994Z,2.30
2018-12-25T02:18:06.029Z,2.35
2018-12-25T02:19:06.015Z,2.32
2018-12-25T02:20:05.972Z,2.32
2018-12-25T02:21:05.951Z,2.33
2018-12-25T02:22:05.941Z,2.35
2018-12-25T02:23:05.969Z,2.37
2018-12-25T02:24:05.920Z,2.29
2018-12-25T02:25:05.952Z,2.35
2018-12-25T02:26:05.898Z,2.40
2018-12-25T02:27:05.886Z,2.39
2018-12-25T02:28:05.875Z,2.45
2018-12-25T02:29:05.864Z,2.40
2018-12-25T02:30:05.855Z,2.33
2018-12-25T02:31:05.885Z,2.30
2018-12-25T02:32:05.833Z,2.36
2018-12-25T02:33:05.823Z,2.33
2018-12-25T02:34:05.815Z,2.30
2018-12-25T02:35:05.804Z,2.24
2018-12-25T02:36:05.832Z,2.37
2018-12-25T02:37:05.827Z,2.30
2018-12-25T02:38:05.800Z,2.17
2018-12-25T02:39:05.758Z,2.15
2018-12-25T02:40:05.747Z,2.30
2018-12-25T02:41:05.735Z,2.33
2018-12-25T02:42:05.720Z,2.28
2018-12-25T02:43:05.786Z,2.30
2018-12-25T02:44:05.703Z,2.47
2018-12-25T02:45:05.704Z,2.32
2018-12-25T02:46:05.678Z,2.43
2018-12-25T02:47:05.675Z,2.48
2018-12-25T02:48:05.659Z,2.45
2018-12-25T02:49:05.687Z,2.43
2018-12-25T02:50:05.648Z,2.53
2018-12-25T02:51:05.682Z,2.43
2018-12-25T02:52:05.636Z,2.51
2018-12-25T02:53:05.606Z,2.50
2018-12-25T02:54:05.593Z,2.45
2018-12-25T02:55:05.586Z,2.45
2018-12-25T02:56:05.575Z,2.45
2018-12-25T02:57:05.616Z,2.54
2018-12-25T02:58:05.550Z,2.48
2018-12-25T02:59:05.583Z,2.57
2018-12-25T03:00:06.818Z,2.42
2018-12-25T03:01:05.569Z,2.47
2018-12-25T03:02:05.508Z,2.65
2018-12-25T03:03:05.502Z,2.53
2018-12-25T03:04:05.496Z,2.55
2018-12-25T03:05:05.484Z,2.60
2018-12-25T03:06:05.509Z,2.68
2018-12-25T03:07:05.502Z,2.57
2018-12-25T03:08:05.458Z,2.58
2018-12-25T03:09:05.476Z,2.50
2018-12-25T03:10:05.427Z,2.63
2018-12-25T03:11:05.457Z,2.60
2018-12-25T03:12:05.405Z,2.63
2018-12-25T03:13:05.563Z,2.66
2018-12-25T03:14:05.379Z,2.53
2018-12-25T03:15:05.365Z,2.61
2018-12-25T03:16:05.405Z,2.66
2018-12-25T03:17:05.344Z,2.55
2018-12-25T03:18:05.338Z,2.60
2018-12-25T03:19:05.322Z,2.61
2018-12-25T03:20:05.313Z,2.65
2018-12-25T03:21:05.309Z,2.61
2018-12-25T03:22:05.328Z,2.58
2018-12-25T03:23:05.279Z,2.54
2018-12-25T03:24:05.270Z,2.55
2018-12-25T03:25:05.257Z,2.50
2018-12-25T03:26:05.306Z,2.45
2018-12-25T03:27:05.241Z,2.42
2018-12-25T03:28:05.237Z,2.45
2018-12-25T03:29:05.219Z,2.43
2018-12-25T03:30:05.257Z,2.51
2018-12-25T03:31:05.295Z,2.45
2018-12-25T03:32:05.184Z,2.54
2018-12-25T03:33:05.181Z,2.53
2018-12-25T03:34:05.163Z,2.51
2018-12-25T03:35:05.152Z,2.58
2018-12-25T03:36:05.140Z,2.55
2018-12-25T03:37:05.171Z,2.65
2018-12-25T03:38:05.115Z,2.60
2018-12-25T03:39:05.115Z,2.61
2018-12-25T03:40:05.095Z,2.61
2018-12-25T03:41:05.087Z,2.53
2018-12-25T03:42:05.077Z,2.66
2018-12-25T03:43:05.107Z,2.61
2018-12-25T03:44:05.054Z,2.60
2018-12-25T03:45:05.044Z,2.73
2018-12-25T03:46:05.088Z,2.58
2018-12-25T03:47:05.026Z,2.57
2018-12-25T03:48:05.010Z,2.55
2018-12-25T03:49:05.000Z,2.63
2018-12-25T03:50:10.671Z,2.55
2018-12-25T03:51:05.976Z,2.50
2018-12-25T03:52:04.975Z,2.60
2018-12-25T03:53:04.952Z,2.58
2018-12-25T03:54:05.002Z,2.66
2018-12-25T03:55:04.940Z,2.63
2018-12-25T03:56:04.923Z,2.63
2018-12-25T03:57:04.916Z,2.63
2018-12-25T03:58:04.907Z,2.58
2018-12-25T03:59:04.911Z,2.60
2018-12-25T04:00:04.921Z,2.57
2018-12-25T04:01:04.866Z,2.68
2018-12-25T04:02:04.857Z,2.69
2018-12-25T04:03:04.844Z,2.60
2018-12-25T04:04:04.838Z,2.55
2018-12-25T04:05:04.831Z,2.58
2018-12-25T04:06:04.854Z,2.53
2018-12-25T04:07:04.807Z,2.50
2018-12-25T04:08:04.795Z,2.53
2018-12-25T04:09:04.788Z,2.51
2018-12-25T04:10:04.784Z,2.58
2018-12-25T04:11:04.764Z,2.47
2018-12-25T04:12:04.793Z,2.51
2018-12-25T04:13:04.741Z,2.47
2018-12-25T04:14:04.751Z,2.48
2018-12-25T04:15:04.715Z,2.53
2018-12-25T04:16:04.748Z,2.60
2018-12-25T04:17:04.711Z,2.63
2018-12-25T04:18:04.681Z,2.63
2018-12-25T04:19:04.676Z,2.63
2018-12-25T04:20:04.678Z,2.60
2018-12-25T04:21:04.695Z,2.61
2018-12-25T04:22:04.640Z,2.50
2018-12-25T04:23:04.631Z,2.48
2018-12-25T04:24:04.619Z,2.53
2018-12-25T04:25:04.613Z,2.58
2018-12-25T04:26:04.602Z,2.55
2018-12-25T04:27:04.631Z,2.63
2018-12-25T04:28:04.574Z,2.54
2018-12-25T04:29:04.565Z,2.51
2018-12-25T04:30:04.603Z,2.50
2018-12-25T04:31:04.559Z,2.65
2018-12-25T04:32:04.547Z,2.51
2018-12-25T04:33:04.529Z,2.61
2018-12-25T04:34:04.511Z,2.65
2018-12-25T04:35:04.502Z,2.60
2018-12-25T04:36:04.596Z,2.63
2018-12-25T04:37:04.517Z,2.63
2018-12-25T04:38:04.470Z,2.66
2018-12-25T04:39:04.457Z,2.66
2018-12-25T04:40:04.447Z,2.75
2018-12-25T04:41:04.433Z,2.71
2018-12-25T04:42:04.471Z,2.60
2018-12-25T04:43:04.422Z,2.60
2018-12-25T04:44:04.402Z,2.63
2018-12-25T04:45:04.397Z,2.65
2018-12-25T04:46:04.422Z,2.65
2018-12-25T04:47:04.372Z,2.48
2018-12-25T04:48:04.361Z,2.48
2018-12-25T04:49:04.391Z,2.58
2018-12-25T04:50:04.348Z,2.55
2018-12-25T04:51:04.330Z,2.66
2018-12-25T04:52:04.320Z,2.61
2018-12-25T04:53:04.322Z,2.57
2018-12-25T04:54:04.292Z,2.68
2018-12-25T04:55:04.327Z,2.63
2018-12-25T04:56:04.275Z,2.72
2018-12-25T04:57:04.265Z,2.75
2018-12-25T04:58:04.250Z,2.73
2018-12-25T04:59:04.244Z,2.82
2018-12-25T05:00:04.256Z,2.69
2018-12-25T05:01:04.260Z,2.86
2018-12-25T05:02:04.237Z,2.79
2018-12-25T05:03:04.200Z,2.81
2018-12-25T05:04:04.188Z,2.81
2018-12-25T05:05:04.175Z,2.93
2018-12-25T05:06:04.205Z,2.82
2018-12-25T05:07:04.160Z,2.81
2018-12-25T05:08:04.154Z,2.86
2018-12-25T05:09:04.134Z,2.90
2018-12-25T05:10:04.133Z,2.76
2018-12-25T05:11:04.110Z,2.96
2018-12-25T05:12:04.153Z,2.86
2018-12-25T05:13:04.099Z,2.78
2018-12-25T05:14:04.080Z,2.79
2018-12-25T05:15:04.068Z,2.81
2018-12-25T05:16:04.067Z,2.75
2018-12-25T05:17:04.047Z,2.84
2018-12-25T05:18:04.078Z,2.87
2018-12-25T05:19:04.042Z,2.81
2018-12-25T05:20:04.056Z,2.87
2018-12-25T05:21:04.010Z,2.81
2018-12-25T05:22:03.989Z,2.72
2018-12-25T05:23:03.978Z,2.79
2018-12-25T05:24:03.971Z,2.71
2018-12-25T05:25:03.959Z,2.79
2018-12-25T05:26:03.998Z,2.79
2018-12-25T05:27:03.936Z,2.86
2018-12-25T05:28:03.930Z,2.84
2018-12-25T05:29:03.914Z,2.84
2018-12-25T05:30:03.913Z,2.89
2018-12-25T05:31:03.897Z,2.89
2018-12-25T05:32:03.928Z,2.89
2018-12-25T05:33:03.879Z,2.90
2018-12-25T05:34:03.860Z,2.86
2018-12-25T05:35:03.855Z,2.84
2018-12-25T05:36:03.841Z,2.86
2018-12-25T05:37:03.829Z,2.89
2018-12-25T05:38:03.863Z,2.87
2018-12-25T05:39:03.807Z,2.86
2018-12-25T05:40:03.798Z,2.82
2018-12-25T05:41:03.786Z,2.82
2018-12-25T05:42:03.802Z,2.86
2018-12-25T05:43:03.774Z,2.99
2018-12-25T05:44:03.804Z,2.84
2018-12-25T05:45:03.745Z,2.93
2018-12-25T05:46:03.738Z,2.99
2018-12-25T05:47:03.733Z,2.87
2018-12-25T05:48:03.723Z,2.84
2018-12-25T05:49:03.719Z,3.02
2018-12-25T05:50:03.750Z,2.96
2018-12-25T05:51:03.678Z,2.94
2018-12-25T05:52:03.671Z,2.96
2018-12-25T05:53:03.668Z,2.99
2018-12-25T05:54:03.643Z,3.00
2018-12-25T05:55:03.633Z,3.00
2018-12-25T05:56:03.666Z,3.02
2018-12-25T05:57:03.611Z,3.00
2018-12-25T05:58:03.601Z,2.94
2018-12-25T05:59:03.592Z,2.99
2018-12-25T06:00:03.585Z,3.02
2018-12-25T06:01:03.587Z,2.96
2018-12-25T06:02:03.598Z,2.94
2018-12-25T06:03:03.558Z,2.97
2018-12-25T06:04:03.553Z,2.93
2018-12-25T06:05:03.543Z,2.90
2018-12-25T06:06:03.519Z,2.93
2018-12-25T06:07:03.806Z,2.96
2018-12-25T06:08:03.491Z,2.91
2018-12-25T06:09:03.489Z,3.05
2018-12-25T06:10:03.484Z,3.04
2018-12-25T06:11:03.466Z,3.02
2018-12-25T06:12:03.464Z,2.93
2018-12-25T06:13:03.490Z,2.99
2018-12-25T06:14:03.430Z,3.00
2018-12-25T06:15:03.474Z,3.00
2018-12-25T06:16:03.436Z,3.00
2018-12-25T06:17:03.406Z,3.11
2018-12-25T06:18:03.393Z,3.08
2018-12-25T06:19:03.373Z,3.12
2018-12-25T06:20:03.367Z,3.15
2018-12-25T06:21:03.405Z,3.20
2018-12-25T06:22:03.347Z,3.20
2018-12-25T06:23:03.342Z,3.29
2018-12-25T06:24:03.375Z,3.23
2018-12-25T06:25:03.314Z,3.26
2018-12-25T06:26:03.308Z,3.23
2018-12-25T06:27:03.286Z,3.25
2018-12-25T06:28:03.283Z,3.22
2018-12-25T06:29:03.292Z,3.29
2018-12-25T06:30:03.300Z,3.11
2018-12-25T06:31:03.246Z,3.14
2018-12-25T06:32:03.280Z,3.11
2018-12-25T06:33:03.233Z,3.14
2018-12-25T06:34:03.208Z,3.08
2018-12-25T06:35:03.202Z,3.07
2018-12-25T06:36:03.190Z,3.09
2018-12-25T06:37:03.236Z,3.08
2018-12-25T06:38:03.182Z,3.08
2018-12-25T06:39:03.170Z,3.05
2018-12-25T06:40:03.156Z,3.08
2018-12-25T06:41:03.139Z,3.07
2018-12-25T06:42:03.150Z,3.08
2018-12-25T06:43:03.166Z,3.09
2018-12-25T06:44:03.110Z,3.12
2018-12-25T06:45:03.095Z,3.12
2018-12-25T06:46:03.090Z,3.14
2018-12-25T06:47:03.095Z,3.07
2018-12-25T06:48:03.131Z,3.15
2018-12-25T06:49:03.052Z,3.00
2018-12-25T06:50:03.046Z,2.96
2018-12-25T06:51:04.043Z,3.02
2018-12-25T06:52:03.029Z,2.96
2018-12-25T06:53:03.055Z,3.08
2018-12-25T06:54:03.000Z,3.07
2018-12-25T06:55:03.074Z,3.11
2018-12-25T06:56:02.977Z,3.18
2018-12-25T06:57:02.991Z,2.99
2018-12-25T06:58:02.964Z,3.11
2018-12-25T06:59:02.982Z,3.09
2018-12-25T07:00:02.934Z,3.08
2018-12-25T07:01:02.936Z,3.12
2018-12-25T07:02:02.910Z,3.09
2018-12-25T07:03:02.900Z,3.15
2018-12-25T07:04:02.949Z,3.09
2018-12-25T07:05:02.872Z,3.27
2018-12-25T07:06:02.890Z,3.30
2018-12-25T07:07:02.861Z,3.26
2018-12-25T07:08:02.843Z,3.14
2018-12-25T07:09:02.849Z,3.26
2018-12-25T07:10:02.881Z,3.12
2018-12-25T07:11:02.816Z,3.05
2018-12-25T07:12:02.799Z,3.14
2018-12-25T07:13:02.808Z,3.27
2018-12-25T07:14:02.783Z,3.25
2018-12-25T07:15:02.773Z,3.20
2018-12-25T07:16:02.797Z,3.25
2018-12-25T07:17:02.753Z,3.32
2018-12-25T07:18:02.783Z,3.32
2018-12-25T07:19:02.734Z,3.30
2018-12-25T07:20:02.717Z,3.27
2018-12-25T07:21:02.701Z,3.23
2018-12-25T07:22:02.830Z,3.27
2018-12-25T07:23:02.680Z,3.33
2018-12-25T07:24:02.672Z,3.26
2018-12-25T07:25:02.657Z,3.25
2018-12-25T07:26:02.646Z,3.25
2018-12-25T07:27:02.633Z,3.11
2018-12-25T07:28:02.700Z,3.29
2018-12-25T07:29:02.618Z,3.09
2018-12-25T07:30:02.604Z,3.07
2018-12-25T07:31:02.616Z,3.11
2018-12-25T07:32:02.609Z,3.25
2018-12-25T07:33:02.623Z,3.27
2018-12-25T07:34:02.564Z,3.35
2018-12-25T07:35:02.556Z,3.30
2018-12-25T07:36:02.550Z,3.32
2018-12-25T07:37:02.525Z,3.45
2018-12-25T07:38:02.520Z,3.37
2018-12-25T07:39:02.547Z,3.23
2018-12-25T07:40:02.498Z,3.29
2018-12-25T07:41:02.533Z,3.33
2018-12-25T07:42:02.469Z,3.35
2018-12-25T07:43:02.501Z,3.35
2018-12-25T07:44:02.493Z,3.36
2018-12-25T07:45:02.444Z,3.35
2018-12-25T07:46:02.430Z,3.26
2018-12-25T07:47:02.430Z,3.41
2018-12-25T07:48:02.418Z,3.29
2018-12-25T07:49:02.392Z,3.23
2018-12-25T07:50:02.423Z,3.41
2018-12-25T07:51:02.375Z,3.30
2018-12-25T07:52:02.363Z,3.33
2018-12-25T07:53:02.359Z,3.29
2018-12-25T07:54:02.379Z,3.35
2018-12-25T07:55:02.380Z,3.18
2018-12-25T07:56:02.360Z,3.20
2018-12-25T07:57:02.309Z,3.26
2018-12-25T07:58:02.327Z,3.22
2018-12-25T07:59:02.288Z,3.22
2018-12-25T08:00:02.358Z,3.14
2018-12-25T08:01:02.265Z,3.14
2018-12-25T08:02:02.302Z,3.17
2018-12-25T08:03:02.261Z,3.20
2018-12-25T08:04:02.253Z,3.32
2018-12-25T08:05:02.226Z,3.30
2018-12-25T08:06:02.213Z,3.11
2018-12-25T08:07:02.220Z,3.30
2018-12-25T08:08:02.228Z,3.23
2018-12-25T08:09:02.182Z,3.22
2018-12-25T08:10:02.167Z,3.12
2018-12-25T08:11:02.162Z,3.08
2018-12-25T08:12:02.153Z,3.22
2018-12-25T08:13:02.148Z,3.22
2018-12-25T08:14:02.176Z,3.27
2018-12-25T08:15:02.124Z,3.14
2018-12-25T08:16:02.119Z,3.08
2018-12-25T08:17:02.090Z,3.12
2018-12-25T08:18:02.091Z,3.25
2018-12-25T08:19:02.073Z,3.12
2018-12-25T08:20:02.115Z,3.08
2018-12-25T08:21:02.050Z,3.14
2018-12-25T08:22:02.038Z,3.14
2018-12-25T08:23:02.630Z,3.30
2018-12-25T08:24:02.018Z,3.32
2018-12-25T08:25:02.005Z,3.37
2018-12-25T08:26:02.032Z,3.26
2018-12-25T08:27:02.022Z,3.33
2018-12-25T08:28:01.986Z,3.45
2018-12-25T08:29:01.963Z,3.33
2018-12-25T08:30:01.970Z,3.44
2018-12-25T08:31:01.937Z,3.41
2018-12-25T08:32:01.934Z,3.41
2018-12-25T08:33:01.961Z,3.45
2018-12-25T08:34:01.927Z,3.55
2018-12-25T08:35:01.908Z,3.52
2018-12-25T08:36:01.899Z,3.56
2018-12-25T08:37:01.917Z,3.59
2018-12-25T08:38:01.865Z,3.49
2018-12-25T08:39:01.853Z,3.59
2018-12-25T08:40:01.849Z,3.56
2018-12-25T08:41:01.892Z,3.63
2018-12-25T08:42:01.870Z,3.64
2018-12-25T08:43:01.813Z,3.60
2018-12-25T08:44:01.801Z,3.59
2018-12-25T08:45:01.788Z,3.66
2018-12-25T08:46:01.779Z,3.59
2018-12-25T08:47:02.747Z,3.62
2018-12-25T08:48:01.835Z,3.56
2018-12-25T08:49:01.749Z,3.60
2018-12-25T08:50:01.780Z,3.59
2018-12-25T08:51:01.728Z,3.69
2018-12-25T08:52:01.712Z,3.63
2018-12-25T08:53:01.703Z,3.78
2018-12-25T08:54:01.717Z,3.74
2018-12-25T08:55:01.731Z,3.84
2018-12-25T08:56:01.729Z,3.85
2018-12-25T08:57:01.665Z,3.82
2018-12-25T08:58:01.650Z,3.82
2018-12-25T08:59:01.691Z,3.80
2018-12-25T09:00:01.627Z,3.80
2018-12-25T09:01:01.683Z,3.80
2018-12-25T09:02:01.611Z,3.73
2018-12-25T09:03:01.603Z,3.76
2018-12-25T09:04:01.654Z,3.87
2018-12-25T09:05:01.578Z,3.91
2018-12-25T09:06:01.582Z,3.81
2018-12-25T09:07:01.551Z,3.85
2018-12-25T09:08:01.566Z,3.92
2018-12-25T09:09:01.539Z,3.94
2018-12-25T09:10:01.600Z,3.91
2018-12-25T09:11:01.542Z,3.88
2018-12-25T09:12:01.572Z,3.90
2018-12-25T09:13:01.485Z,3.99
2018-12-25T09:14:01.478Z,4.00
2018-12-25T09:15:01.467Z,4.08
2018-12-25T09:16:01.504Z,4.05
2018-12-25T09:17:01.449Z,4.08
2018-12-25T09:18:01.485Z,4.12
2018-12-25T09:19:01.434Z,4.09
2018-12-25T09:20:01.421Z,4.13
2018-12-25T09:21:01.428Z,4.20
2018-12-25T09:22:01.404Z,4.20
2018-12-25T09:23:01.439Z,4.13
2018-12-25T09:24:01.370Z,4.20
2018-12-25T09:25:01.449Z,4.24
2018-12-25T09:26:01.409Z,4.30
2018-12-25T09:27:01.345Z,4.28
2018-12-25T09:28:01.335Z,4.21
2018-12-25T09:29:01.330Z,4.38
2018-12-25T09:30:01.360Z,4.28
2018-12-25T09:31:01.311Z,4.35
2018-12-25T09:32:01.319Z,4.35
2018-12-25T09:33:01.311Z,4.39
2018-12-25T09:34:01.263Z,4.42
2018-12-25T09:35:01.264Z,4.38
2018-12-25T09:36:01.265Z,4.39
2018-12-25T09:37:01.274Z,4.38
2018-12-25T09:38:01.218Z,4.43
2018-12-25T09:39:01.211Z,4.53
2018-12-25T09:40:01.205Z,4.57
2018-12-25T09:41:01.197Z,4.51
2018-12-25T09:42:01.178Z,4.56
2018-12-25T09:43:01.236Z,4.59
2018-12-25T09:44:01.156Z,4.56
2018-12-25T09:45:01.144Z,4.53
2018-12-25T09:46:01.134Z,4.53
2018-12-25T09:47:01.391Z,4.49
2018-12-25T09:48:01.119Z,4.53
2018-12-25T09:49:01.099Z,4.45
2018-12-25T09:50:01.090Z,4.45
2018-12-25T09:51:01.128Z,4.59
2018-12-25T09:52:01.071Z,4.56
2018-12-25T09:53:01.136Z,4.54
2018-12-25T09:54:01.170Z,4.46
2018-12-25T09:55:01.045Z,4.51
2018-12-25T09:56:01.040Z,4.56
2018-12-25T09:57:01.025Z,4.63
2018-12-25T09:58:01.111Z,4.61
2018-12-25T09:59:01.038Z,4.61
2018-12-25T10:00:00.990Z,4.59
2018-12-25T10:01:00.970Z,4.60
2018-12-25T10:02:00.961Z,4.61
2018-12-25T10:03:00.970Z,4.69
2018-12-25T10:04:00.959Z,4.72
2018-12-25T10:05:00.981Z,4.78
2018-12-25T10:06:00.925Z,4.75
2018-12-25T10:07:00.919Z,4.69
2018-12-25T10:08:00.954Z,4.61
2018-12-25T10:09:00.889Z,4.67
2018-12-25T10:10:00.870Z,4.74
2018-12-25T10:11:00.878Z,4.72
2018-12-25T10:12:00.932Z,4.64
2018-12-25T10:13:00.876Z,4.61
2018-12-25T10:14:00.842Z,4.57
2018-12-25T10:15:00.820Z,4.53
2018-12-25T10:16:00.884Z,4.64
2018-12-25T10:17:00.796Z,4.60
2018-12-25T10:18:00.801Z,4.54
2018-12-25T10:19:00.798Z,4.59
2018-12-25T10:20:00.775Z,4.59
2018-12-25T10:21:00.757Z,4.59
2018-12-25T10:22:03.196Z,4.54
2018-12-25T10:23:00.735Z,4.60
2018-12-25T10:24:00.731Z,4.67
2018-12-25T10:25:00.713Z,4.57
2018-12-25T10:26:00.711Z,4.54
2018-12-25T10:27:00.708Z,4.61
2018-12-25T10:28:00.740Z,4.63
2018-12-25T10:29:00.690Z,4.77
2018-12-25T10:30:00.658Z,4.67
2018-12-25T10:31:00.644Z,4.77
2018-12-25T10:32:00.662Z,4.86
2018-12-25T10:33:00.910Z,4.94
2018-12-25T10:34:00.631Z,4.96
2018-12-25T10:35:00.600Z,4.98
2018-12-25T10:36:00.593Z,5.11
2018-12-25T10:37:00.599Z,5.16
2018-12-25T10:38:00.580Z,5.29
2018-12-25T10:39:00.610Z,5.22
2018-12-25T10:40:00.550Z,5.19
2018-12-25T10:41:00.564Z,5.22
2018-12-25T10:42:00.534Z,5.21
2018-12-25T10:43:00.529Z,5.29
2018-12-25T10:44:00.522Z,5.21
2018-12-25T10:45:00.556Z,5.32
2018-12-25T10:46:00.498Z,5.39
2018-12-25T10:47:00.517Z,5.34
2018-12-25T10:48:00.478Z,5.44
2018-12-25T10:49:00.450Z,5.57
2018-12-25T10:50:00.492Z,5.50
2018-12-25T10:51:00.444Z,5.57
2018-12-25T10:52:00.424Z,5.52
2018-12-25T10:53:00.409Z,5.57
2018-12-25T10:54:00.399Z,5.61
2018-12-25T10:55:00.404Z,5.59
2018-12-25T10:56:00.439Z,5.65
2018-12-25T10:57:00.364Z,5.69
2018-12-25T10:58:00.370Z,5.69
2018-12-25T10:59:00.340Z,5.76
2018-12-25T11:00:00.343Z,5.79
2018-12-25T11:01:00.330Z,5.82
2018-12-25T11:02:00.363Z,5.72
2018-12-25T11:03:00.307Z,5.66
2018-12-25T11:04:00.292Z,5.77
2018-12-25T11:05:00.300Z,5.85
2018-12-25T11:06:00.314Z,5.84
2018-12-25T11:07:00.276Z,5.80
2018-12-25T11:08:00.311Z,5.70
2018-12-25T11:09:00.236Z,5.75
2018-12-25T11:10:00.226Z,5.79
2018-12-25T11:11:00.219Z,5.82
2018-12-25T11:12:00.202Z,5.91
2018-12-25T11:13:00.189Z,5.97
2018-12-25T11:14:00.246Z,6.11
2018-12-25T11:15:00.287Z,6.16
2018-12-25T11:16:00.185Z,6.09
2018-12-25T11:17:00.149Z,6.30
2018-12-25T11:18:00.140Z,6.21
2018-12-25T11:19:00.157Z,6.30
2018-12-25T11:20:00.174Z,6.21
2018-12-25T11:21:00.103Z,6.16
2018-12-25T11:22:00.154Z,6.21
2018-12-25T11:23:00.147Z,6.30
2018-12-25T11:24:00.079Z,6.34
2018-12-25T11:25:00.251Z,6.32
2018-12-25T11:26:00.055Z,6.34
2018-12-25T11:27:00.045Z,6.31
2018-12-25T11:28:00.035Z,6.16
2018-12-25T11:29:00.079Z,6.21
2018-12-25T11:30:00.010Z,6.25
2018-12-25T11:31:00.039Z,6.21
2018-12-25T11:32:00.016Z,6.32
2018-12-25T11:32:59.977Z,6.28
2018-12-25T11:33:59.967Z,6.35
2018-12-25T11:34:59.950Z,6.37
2018-12-25T11:35:59.939Z,6.42
2018-12-25T11:36:59.980Z,6.42
2018-12-25T11:37:59.916Z,6.42
2018-12-25T11:38:59.907Z,6.35
2018-12-25T11:39:59.902Z,6.50
2018-12-25T11:40:59.884Z,6.47
2018-12-25T11:41:59.922Z,6.42
2018-12-25T11:42:59.860Z,6.52
2018-12-25T11:43:59.852Z,6.47
2018-12-25T11:44:59.840Z,6.31
2018-12-25T11:45:59.851Z,6.34
2018-12-25T11:46:59.869Z,6.13
2018-12-25T11:47:59.816Z,6.18
2018-12-25T11:48:59.791Z,6.16
2018-12-25T11:49:59.779Z,6.35
2018-12-25T11:50:59.783Z,6.45
2018-12-25T11:51:59.793Z,6.46
2018-12-25T11:52:59.788Z,6.52
2018-12-25T11:53:59.739Z,6.64
2018-12-25T11:54:59.746Z,6.63
2018-12-25T11:55:59.718Z,6.61
2018-12-25T11:56:59.709Z,6.79
2018-12-25T11:57:59.728Z,6.79
2018-12-25T11:58:59.967Z,6.79
2018-12-25T11:59:59.681Z,6.91
2018-12-25T12:00:59.666Z,7.03
2018-12-25T12:01:59.649Z,6.96
2018-12-25T12:02:59.650Z,6.89
2018-12-25T12:03:59.654Z,7.01
2018-12-25T12:04:59.681Z,7.03
2018-12-25T12:05:59.623Z,7.10
2018-12-25T12:06:59.592Z,7.07
2018-12-25T12:07:59.583Z,6.96
2018-12-25T12:08:59.571Z,6.99
2018-12-25T12:09:59.608Z,6.89
2018-12-25T12:10:59.563Z,6.89
2018-12-25T12:11:59.599Z,6.88
2018-12-25T12:12:59.536Z,6.85
2018-12-25T12:13:59.520Z,6.81
2018-12-25T12:14:59.521Z,6.88
2018-12-25T12:15:59.538Z,6.89
2018-12-25T12:16:59.488Z,6.89
2018-12-25T12:17:59.480Z,6.89
2018-12-25T12:18:59.478Z,6.96
2018-12-25T12:19:59.463Z,7.00
2018-12-25T12:20:59.453Z,7.10
2018-12-25T12:21:59.483Z,7.01
2018-12-25T12:22:59.419Z,7.07
2018-12-25T12:23:59.409Z,7.00
2018-12-25T12:24:59.402Z,7.06
2018-12-25T12:25:59.382Z,7.08
2018-12-25T12:26:59.380Z,7.10
2018-12-25T12:27:59.412Z,7.18
2018-12-25T12:28:59.377Z,7.24
2018-12-25T12:29:59.352Z,7.36
2018-12-25T12:30:59.346Z,7.29
2018-12-25T12:31:59.325Z,7.26
2018-12-25T12:32:59.305Z,7.47
2018-12-25T12:33:59.348Z,7.54
2018-12-25T12:34:59.303Z,7.58
2018-12-25T12:35:59.282Z,7.52
2018-12-25T12:36:59.269Z,7.46
2018-12-25T12:37:59.254Z,7.42
2018-12-25T12:38:59.252Z,7.55
2018-12-25T12:39:59.271Z,7.52
2018-12-25T12:40:59.227Z,7.46
2018-12-25T12:41:59.207Z,7.31
2018-12-25T12:42:59.278Z,7.28
2018-12-25T12:43:59.192Z,7.28
2018-12-25T12:44:59.187Z,7.19
2018-12-25T12:45:59.258Z,7.19
2018-12-25T12:46:59.162Z,7.29
2018-12-25T12:47:59.189Z,7.39
2018-12-25T12:48:59.171Z,7.44
2018-12-25T12:49:59.126Z,7.36
2018-12-25T12:50:59.149Z,7.22
2018-12-25T12:51:59.109Z,7.36
2018-12-25T12:52:59.129Z,7.25
2018-12-25T12:53:59.163Z,7.31
2018-12-25T12:54:59.063Z,7.33
2018-12-25T12:55:59.061Z,7.34
2018-12-25T12:56:59.044Z,7.37
2018-12-25T12:57:59.087Z,7.42
2018-12-25T12:58:59.029Z,7.50
2018-12-25T12:59:59.040Z,7.44
2018-12-25T13:00:59.019Z,7.46
2018-12-25T13:01:58.990Z,7.42
2018-12-25T13:02:59.018Z,7.52
2018-12-25T13:03:58.990Z,7.46
2018-12-25T13:04:58.956Z,7.54
2018-12-25T13:05:58.987Z,7.61
2018-12-25T13:06:58.979Z,7.57
2018-12-25T13:07:58.921Z,7.58
2018-12-25T13:08:58.910Z,7.57
2018-12-25T13:09:58.894Z,7.64
2018-12-25T13:10:58.950Z,7.54
2018-12-25T13:11:58.928Z,7.40
2018-12-25T13:12:58.886Z,7.43
2018-12-25T13:13:58.849Z,7.46
2018-12-25T13:14:58.846Z,7.42
2018-12-25T13:15:58.842Z,7.49
2018-12-25T13:16:58.825Z,7.58
2018-12-25T13:17:58.851Z,7.52